sensor_id;sensor_type;location;lat;lon;timestamp;temperature;humidity
7129;DHT22;3606;52.930;8.644;2023-02-21T00:01:50;9.50;99.90
7129;DHT22;3606;52.930;8.644;2023-02-21T00:04:34;9.40;99.90
7129;DHT22;3606;52.930;8.644;2023-02-21T00:07:19;9.50;99.90
7129;DHT22;3606;52.930;8.644;2023-02-21T00:10:04;9.40;99.90
7129;DHT22;3606;52.930;8.644;2023-02-21T00:12:49;9.40;99.90
7129;DHT22;3606;52.930;8.644;2023-02-21T00:15:33;9.40;99.90
7129;DHT22;3606;52.930;8.644;2023-02-21T00:18:17;9.40;99.90
7129;DHT22;3606;52.930;8.644;2023-02-21T00:21:02;9.40;99.90
7129;DHT22;3606;52.930;8.644;2023-02-21T00:23:46;9.50;99.90
7129;DHT22;3606;52.930;8.644;2023-02-21T00:26:31;9.40;99.90
7129;DHT22;3606;52.930;8.644;2023-02-21T00:29:15;9.50;99.90
7129;DHT22;3606;52.930;8.644;2023-02-21T00:31:59;9.50;99.90
7129;DHT22;3606;52.930;8.644;2023-02-21T00:34:43;9.50;99.90
7129;DHT22;3606;52.930;8.644;2023-02-21T00:37:27;9.50;99.90
7129;DHT22;3606;52.930;8.644;2023-02-21T00:40:13;9.50;99.90
7129;DHT22;3606;52.930;8.644;2023-02-21T00:42:58;9.50;99.90
7129;DHT22;3606;52.930;8.644;2023-02-21T00:45:42;9.50;99.90
7129;DHT22;3606;52.930;8.644;2023-02-21T00:48:26;9.60;99.90
7129;DHT22;3606;52.930;8.644;2023-02-21T00:51:10;9.60;99.90
7129;DHT22;3606;52.930;8.644;2023-02-21T00:53:54;9.60;99.90
7129;DHT22;3606;52.930;8.644;2023-02-21T00:56:38;9.60;99.90
7129;DHT22;3606;52.930;8.644;2023-02-21T00:59:23;9.60;99.90
7129;DHT22;3606;52.930;8.644;2023-02-21T01:02:08;9.50;99.90
7129;DHT22;3606;52.930;8.644;2023-02-21T01:04:53;9.50;99.90
7129;DHT22;3606;52.930;8.644;2023-02-21T01:07:37;9.50;99.90
7129;DHT22;3606;52.930;8.644;2023-02-21T01:10:21;9.50;99.90
7129;DHT22;3606;52.930;8.644;2023-02-21T01:13:05;9.50;99.90
7129;DHT22;3606;52.930;8.644;2023-02-21T01:15:50;9.50;99.90
7129;DHT22;3606;52.930;8.644;2023-02-21T01:18:34;9.50;99.90
7129;DHT22;3606;52.930;8.644;2023-02-21T01:21:19;9.40;99.90
7129;DHT22;3606;52.930;8.644;2023-02-21T01:24:04;9.40;99.90
7129;DHT22;3606;52.930;8.644;2023-02-21T01:26:49;9.40;99.90
7129;DHT22;3606;52.930;8.644;2023-02-21T01:29:34;9.40;99.90
7129;DHT22;3606;52.930;8.644;2023-02-21T01:32:19;9.40;99.90
7129;DHT22;3606;52.930;8.644;2023-02-21T01:35:04;9.40;99.90
7129;DHT22;3606;52.930;8.644;2023-02-21T01:37:48;9.40;99.90
7129;DHT22;3606;52.930;8.644;2023-02-21T01:40:32;9.50;99.90
7129;DHT22;3606;52.930;8.644;2023-02-21T01:43:19;9.40;99.90
7129;DHT22;3606;52.930;8.644;2023-02-21T01:46:04;9.40;99.90
7129;DHT22;3606;52.930;8.644;2023-02-21T01:48:50;9.40;99.90
7129;DHT22;3606;52.930;8.644;2023-02-21T01:51:38;9.40;99.90
7129;DHT22;3606;52.930;8.644;2023-02-21T01:54:25;9.40;99.90
7129;DHT22;3606;52.930;8.644;2023-02-21T01:57:10;9.40;99.90
7129;DHT22;3606;52.930;8.644;2023-02-21T01:59:57;9.40;99.90
7129;DHT22;3606;52.930;8.644;2023-02-21T02:03:15;9.40;99.90
7129;DHT22;3606;52.930;8.644;2023-02-21T02:06:04;9.40;99.90
7129;DHT22;3606;52.930;8.644;2023-02-21T02:08:50;9.40;99.90
7129;DHT22;3606;52.930;8.644;2023-02-21T02:17:31;9.40;99.90
7129;DHT22;3606;52.930;8.644;2023-02-21T02:20:17;9.40;99.90
7129;DHT22;3606;52.930;8.644;2023-02-21T02:36:48;9.30;99.90
7129;DHT22;3606;52.930;8.644;2023-02-21T02:39:26;9.40;99.90
7129;DHT22;3606;52.930;8.644;2023-02-21T02:44:59;9.40;99.90
7129;DHT22;3606;52.930;8.644;2023-02-21T02:47:32;9.40;99.90
7129;DHT22;3606;52.930;8.644;2023-02-21T02:49:59;9.30;99.90
7129;DHT22;3606;52.930;8.644;2023-02-21T02:52:26;9.40;99.90
7129;DHT22;3606;52.930;8.644;2023-02-21T02:55:00;9.40;99.90
7129;DHT22;3606;52.930;8.644;2023-02-21T02:57:29;9.40;99.90
7129;DHT22;3606;52.930;8.644;2023-02-21T03:00:03;9.40;99.90
7129;DHT22;3606;52.930;8.644;2023-02-21T03:05:48;9.40;99.90
7129;DHT22;3606;52.930;8.644;2023-02-21T03:16:28;9.40;99.90
7129;DHT22;3606;52.930;8.644;2023-02-21T03:19:09;9.50;99.90
7129;DHT22;3606;52.930;8.644;2023-02-21T03:21:47;9.40;99.90
7129;DHT22;3606;52.930;8.644;2023-02-21T03:24:15;9.40;99.90
7129;DHT22;3606;52.930;8.644;2023-02-21T03:26:45;9.40;99.90
7129;DHT22;3606;52.930;8.644;2023-02-21T03:29:13;9.40;99.90
7129;DHT22;3606;52.930;8.644;2023-02-21T03:31:46;9.50;99.90
7129;DHT22;3606;52.930;8.644;2023-02-21T03:34:14;9.40;99.90
7129;DHT22;3606;52.930;8.644;2023-02-21T03:36:39;9.40;99.90
7129;DHT22;3606;52.930;8.644;2023-02-21T03:39:06;9.40;99.90
7129;DHT22;3606;52.930;8.644;2023-02-21T03:41:31;9.40;99.90
7129;DHT22;3606;52.930;8.644;2023-02-21T03:43:57;9.50;99.90
7129;DHT22;3606;52.930;8.644;2023-02-21T03:46:23;9.40;99.90
7129;DHT22;3606;52.930;8.644;2023-02-21T03:48:48;9.50;99.90
7129;DHT22;3606;52.930;8.644;2023-02-21T03:51:14;9.40;99.90
7129;DHT22;3606;52.930;8.644;2023-02-21T03:53:40;9.40;99.90
7129;DHT22;3606;52.930;8.644;2023-02-21T03:56:06;9.40;99.90
7129;DHT22;3606;52.930;8.644;2023-02-21T03:58:32;9.40;99.90
7129;DHT22;3606;52.930;8.644;2023-02-21T04:00:58;9.40;99.90
7129;DHT22;3606;52.930;8.644;2023-02-21T04:03:23;9.40;99.90
7129;DHT22;3606;52.930;8.644;2023-02-21T04:05:49;9.50;99.90
7129;DHT22;3606;52.930;8.644;2023-02-21T04:08:15;9.50;99.90
7129;DHT22;3606;52.930;8.644;2023-02-21T04:10:41;9.50;99.90
7129;DHT22;3606;52.930;8.644;2023-02-21T04:13:06;9.50;99.90
7129;DHT22;3606;52.930;8.644;2023-02-21T04:15:33;9.50;99.90
7129;DHT22;3606;52.930;8.644;2023-02-21T04:17:59;9.40;99.90
7129;DHT22;3606;52.930;8.644;2023-02-21T04:20:24;9.50;99.90
7129;DHT22;3606;52.930;8.644;2023-02-21T04:22:50;9.50;99.90
7129;DHT22;3606;52.930;8.644;2023-02-21T04:25:15;9.50;99.90
7129;DHT22;3606;52.930;8.644;2023-02-21T04:27:41;9.50;99.90
7129;DHT22;3606;52.930;8.644;2023-02-21T04:30:07;9.50;99.90
7129;DHT22;3606;52.930;8.644;2023-02-21T04:32:33;9.50;99.90
7129;DHT22;3606;52.930;8.644;2023-02-21T04:34:58;9.50;99.90
7129;DHT22;3606;52.930;8.644;2023-02-21T04:37:24;9.50;99.90
7129;DHT22;3606;52.930;8.644;2023-02-21T04:39:50;9.50;99.90
7129;DHT22;3606;52.930;8.644;2023-02-21T04:42:15;9.50;99.90
7129;DHT22;3606;52.930;8.644;2023-02-21T04:44:41;9.50;99.90
7129;DHT22;3606;52.930;8.644;2023-02-21T04:47:06;9.50;99.90
7129;DHT22;3606;52.930;8.644;2023-02-21T04:49:32;9.50;99.90
7129;DHT22;3606;52.930;8.644;2023-02-21T04:51:57;9.40;99.90
7129;DHT22;3606;52.930;8.644;2023-02-21T04:54:23;9.40;99.90
7129;DHT22;3606;52.930;8.644;2023-02-21T04:56:49;9.40;99.90
7129;DHT22;3606;52.930;8.644;2023-02-21T04:59:14;9.40;99.90
7129;DHT22;3606;52.930;8.644;2023-02-21T05:01:40;9.40;99.90
7129;DHT22;3606;52.930;8.644;2023-02-21T05:04:05;9.50;99.90
7129;DHT22;3606;52.930;8.644;2023-02-21T05:06:31;9.50;99.90
7129;DHT22;3606;52.930;8.644;2023-02-21T05:08:58;9.40;99.90
7129;DHT22;3606;52.930;8.644;2023-02-21T05:11:24;9.40;99.90
7129;DHT22;3606;52.930;8.644;2023-02-21T05:13:50;9.40;99.90
7129;DHT22;3606;52.930;8.644;2023-02-21T05:16:16;9.50;99.90
7129;DHT22;3606;52.930;8.644;2023-02-21T05:18:43;9.50;99.90
7129;DHT22;3606;52.930;8.644;2023-02-21T05:21:09;9.50;99.90
7129;DHT22;3606;52.930;8.644;2023-02-21T05:23:36;9.50;99.90
7129;DHT22;3606;52.930;8.644;2023-02-21T05:26:10;9.50;99.90
7129;DHT22;3606;52.930;8.644;2023-02-21T05:28:36;9.50;99.90
7129;DHT22;3606;52.930;8.644;2023-02-21T05:31:02;9.50;99.90
7129;DHT22;3606;52.930;8.644;2023-02-21T05:33:28;9.50;99.90
7129;DHT22;3606;52.930;8.644;2023-02-21T05:35:55;9.50;99.90
7129;DHT22;3606;52.930;8.644;2023-02-21T05:38:22;9.50;99.90
7129;DHT22;3606;52.930;8.644;2023-02-21T05:40:48;9.50;99.90
7129;DHT22;3606;52.930;8.644;2023-02-21T05:43:14;9.50;99.90
7129;DHT22;3606;52.930;8.644;2023-02-21T05:45:40;9.50;99.90
7129;DHT22;3606;52.930;8.644;2023-02-21T05:48:06;9.50;99.90
7129;DHT22;3606;52.930;8.644;2023-02-21T05:50:32;9.50;99.90
7129;DHT22;3606;52.930;8.644;2023-02-21T05:52:58;9.50;99.90
7129;DHT22;3606;52.930;8.644;2023-02-21T05:55:25;9.50;99.90
7129;DHT22;3606;52.930;8.644;2023-02-21T05:57:51;9.50;99.90
7129;DHT22;3606;52.930;8.644;2023-02-21T06:00:24;9.50;99.90
7129;DHT22;3606;52.930;8.644;2023-02-21T06:02:50;9.50;99.90
7129;DHT22;3606;52.930;8.644;2023-02-21T06:05:17;9.50;99.90
7129;DHT22;3606;52.930;8.644;2023-02-21T06:07:43;9.50;99.90
7129;DHT22;3606;52.930;8.644;2023-02-21T06:10:09;9.60;99.90
7129;DHT22;3606;52.930;8.644;2023-02-21T06:12:34;9.60;99.90
7129;DHT22;3606;52.930;8.644;2023-02-21T06:15:01;9.50;99.90
7129;DHT22;3606;52.930;8.644;2023-02-21T06:17:32;9.50;99.90
7129;DHT22;3606;52.930;8.644;2023-02-21T06:19:57;9.60;99.90
7129;DHT22;3606;52.930;8.644;2023-02-21T06:22:23;9.60;99.90
7129;DHT22;3606;52.930;8.644;2023-02-21T06:24:48;9.60;99.90
7129;DHT22;3606;52.930;8.644;2023-02-21T06:27:14;9.60;99.90
7129;DHT22;3606;52.930;8.644;2023-02-21T06:29:40;9.60;99.90
7129;DHT22;3606;52.930;8.644;2023-02-21T06:32:05;9.60;99.90
7129;DHT22;3606;52.930;8.644;2023-02-21T06:34:31;9.60;99.90
7129;DHT22;3606;52.930;8.644;2023-02-21T06:36:56;9.60;99.90
7129;DHT22;3606;52.930;8.644;2023-02-21T06:39:22;9.60;99.90
7129;DHT22;3606;52.930;8.644;2023-02-21T06:41:48;9.60;99.90
7129;DHT22;3606;52.930;8.644;2023-02-21T06:44:14;9.60;99.90
7129;DHT22;3606;52.930;8.644;2023-02-21T06:46:41;9.60;99.90
7129;DHT22;3606;52.930;8.644;2023-02-21T06:49:06;9.60;99.90
7129;DHT22;3606;52.930;8.644;2023-02-21T06:51:39;9.60;99.90
7129;DHT22;3606;52.930;8.644;2023-02-21T06:54:06;9.60;99.90
7129;DHT22;3606;52.930;8.644;2023-02-21T06:56:35;9.60;99.90
7129;DHT22;3606;52.930;8.644;2023-02-21T06:59:01;9.70;99.90
7129;DHT22;3606;52.930;8.644;2023-02-21T07:01:28;9.70;99.90
7129;DHT22;3606;52.930;8.644;2023-02-21T07:03:55;9.70;99.90
7129;DHT22;3606;52.930;8.644;2023-02-21T07:06:20;9.70;99.90
7129;DHT22;3606;52.930;8.644;2023-02-21T07:08:46;9.70;99.90
7129;DHT22;3606;52.930;8.644;2023-02-21T07:11:13;9.70;99.90
7129;DHT22;3606;52.930;8.644;2023-02-21T07:13:39;9.70;99.90
7129;DHT22;3606;52.930;8.644;2023-02-21T07:16:05;9.70;99.90
7129;DHT22;3606;52.930;8.644;2023-02-21T07:18:31;9.70;99.90
7129;DHT22;3606;52.930;8.644;2023-02-21T07:20:56;9.70;99.90
7129;DHT22;3606;52.930;8.644;2023-02-21T07:23:22;9.70;99.90
7129;DHT22;3606;52.930;8.644;2023-02-21T07:25:48;9.70;99.90
7129;DHT22;3606;52.930;8.644;2023-02-21T07:28:13;9.70;99.90
7129;DHT22;3606;52.930;8.644;2023-02-21T07:30:39;9.70;99.90
7129;DHT22;3606;52.930;8.644;2023-02-21T07:33:05;9.80;99.90
7129;DHT22;3606;52.930;8.644;2023-02-21T07:35:30;9.80;99.90
7129;DHT22;3606;52.930;8.644;2023-02-21T07:37:56;9.80;99.90
7129;DHT22;3606;52.930;8.644;2023-02-21T07:40:22;9.80;99.90
7129;DHT22;3606;52.930;8.644;2023-02-21T07:42:47;9.80;99.90
7129;DHT22;3606;52.930;8.644;2023-02-21T07:45:14;9.80;99.90
7129;DHT22;3606;52.930;8.644;2023-02-21T07:47:40;9.90;99.90
7129;DHT22;3606;52.930;8.644;2023-02-21T07:50:08;9.90;99.90
7129;DHT22;3606;52.930;8.644;2023-02-21T07:52:34;9.80;99.90
7129;DHT22;3606;52.930;8.644;2023-02-21T07:54:59;9.90;99.90
7129;DHT22;3606;52.930;8.644;2023-02-21T07:57:25;9.80;99.90
7129;DHT22;3606;52.930;8.644;2023-02-21T07:59:51;9.90;99.90
7129;DHT22;3606;52.930;8.644;2023-02-21T08:02:16;9.90;99.90
7129;DHT22;3606;52.930;8.644;2023-02-21T08:04:42;9.90;99.90
7129;DHT22;3606;52.930;8.644;2023-02-21T08:07:08;9.90;99.90
7129;DHT22;3606;52.930;8.644;2023-02-21T08:09:34;9.90;99.90
7129;DHT22;3606;52.930;8.644;2023-02-21T08:12:00;9.90;99.90
7129;DHT22;3606;52.930;8.644;2023-02-21T08:14:26;10.00;99.90
7129;DHT22;3606;52.930;8.644;2023-02-21T08:16:51;10.00;99.90
7129;DHT22;3606;52.930;8.644;2023-02-21T08:19:17;10.00;99.90
7129;DHT22;3606;52.930;8.644;2023-02-21T08:21:44;10.00;99.90
7129;DHT22;3606;52.930;8.644;2023-02-21T08:24:11;10.00;99.90
7129;DHT22;3606;52.930;8.644;2023-02-21T08:26:36;10.00;99.90
7129;DHT22;3606;52.930;8.644;2023-02-21T08:29:02;10.00;99.90
7129;DHT22;3606;52.930;8.644;2023-02-21T08:31:28;10.00;99.90
7129;DHT22;3606;52.930;8.644;2023-02-21T08:33:53;10.10;99.90
7129;DHT22;3606;52.930;8.644;2023-02-21T08:36:19;10.10;99.90
7129;DHT22;3606;52.930;8.644;2023-02-21T08:38:45;10.10;99.90
7129;DHT22;3606;52.930;8.644;2023-02-21T08:41:11;10.10;99.90
7129;DHT22;3606;52.930;8.644;2023-02-21T08:43:36;10.20;99.90
7129;DHT22;3606;52.930;8.644;2023-02-21T08:46:02;10.20;99.90
7129;DHT22;3606;52.930;8.644;2023-02-21T08:48:28;10.20;99.90
7129;DHT22;3606;52.930;8.644;2023-02-21T08:50:53;10.20;99.90
7129;DHT22;3606;52.930;8.644;2023-02-21T08:53:19;10.20;99.90
7129;DHT22;3606;52.930;8.644;2023-02-21T08:55:45;10.20;99.90
7129;DHT22;3606;52.930;8.644;2023-02-21T08:58:11;10.20;99.90
7129;DHT22;3606;52.930;8.644;2023-02-21T09:00:37;10.30;99.90
7129;DHT22;3606;52.930;8.644;2023-02-21T09:03:03;10.30;99.90
7129;DHT22;3606;52.930;8.644;2023-02-21T09:05:30;10.30;99.90
7129;DHT22;3606;52.930;8.644;2023-02-21T09:07:57;10.40;99.90
7129;DHT22;3606;52.930;8.644;2023-02-21T09:10:31;10.40;99.90
7129;DHT22;3606;52.930;8.644;2023-02-21T09:13:00;10.40;99.90
7129;DHT22;3606;52.930;8.644;2023-02-21T09:15:26;10.40;99.90
7129;DHT22;3606;52.930;8.644;2023-02-21T09:17:52;10.40;99.90
7129;DHT22;3606;52.930;8.644;2023-02-21T09:20:22;10.50;99.90
7129;DHT22;3606;52.930;8.644;2023-02-21T09:22:48;10.40;99.90
7129;DHT22;3606;52.930;8.644;2023-02-21T09:25:18;10.50;99.90
7129;DHT22;3606;52.930;8.644;2023-02-21T09:27:44;10.50;99.90
7129;DHT22;3606;52.930;8.644;2023-02-21T09:30:19;10.50;99.90
7129;DHT22;3606;52.930;8.644;2023-02-21T09:32:48;10.60;99.90
7129;DHT22;3606;52.930;8.644;2023-02-21T09:35:14;10.60;99.90
7129;DHT22;3606;52.930;8.644;2023-02-21T09:37:41;10.70;99.90
7129;DHT22;3606;52.930;8.644;2023-02-21T09:43:00;10.80;99.90
7129;DHT22;3606;52.930;8.644;2023-02-21T09:45:30;10.80;99.90
7129;DHT22;3606;52.930;8.644;2023-02-21T09:47:59;10.90;99.90
7129;DHT22;3606;52.930;8.644;2023-02-21T09:50:28;10.90;99.90
7129;DHT22;3606;52.930;8.644;2023-02-21T09:52:59;10.90;99.90
7129;DHT22;3606;52.930;8.644;2023-02-21T09:55:33;10.80;99.90
7129;DHT22;3606;52.930;8.644;2023-02-21T09:58:00;10.90;99.90
7129;DHT22;3606;52.930;8.644;2023-02-21T10:00:34;10.80;99.90
7129;DHT22;3606;52.930;8.644;2023-02-21T10:09:07;10.80;99.90
7129;DHT22;3606;52.930;8.644;2023-02-21T10:11:54;10.80;99.90
7129;DHT22;3606;52.930;8.644;2023-02-21T10:17:20;10.80;99.90
7129;DHT22;3606;52.930;8.644;2023-02-21T10:19:54;10.80;99.90
7129;DHT22;3606;52.930;8.644;2023-02-21T10:22:27;10.80;99.90
7129;DHT22;3606;52.930;8.644;2023-02-21T10:24:56;10.80;99.90
7129;DHT22;3606;52.930;8.644;2023-02-21T10:27:26;10.80;99.90
7129;DHT22;3606;52.930;8.644;2023-02-21T10:30:02;10.90;99.90
7129;DHT22;3606;52.930;8.644;2023-02-21T10:32:30;10.90;99.90
7129;DHT22;3606;52.930;8.644;2023-02-21T10:34:57;10.90;99.90
7129;DHT22;3606;52.930;8.644;2023-02-21T10:37:39;10.90;99.90
7129;DHT22;3606;52.930;8.644;2023-02-21T10:46:03;11.10;99.90
7129;DHT22;3606;52.930;8.644;2023-02-21T10:48:35;11.10;99.90
7129;DHT22;3606;52.930;8.644;2023-02-21T10:53:43;11.10;99.90
7129;DHT22;3606;52.930;8.644;2023-02-21T10:58:49;11.40;99.90
7129;DHT22;3606;52.930;8.644;2023-02-21T11:04:06;11.50;99.90
7129;DHT22;3606;52.930;8.644;2023-02-21T11:07:03;11.80;99.90
7129;DHT22;3606;52.930;8.644;2023-02-21T11:17:27;12.50;28.70
7129;DHT22;3606;52.930;8.644;2023-02-21T11:19:55;12.70;1.00
7129;DHT22;3606;52.930;8.644;2023-02-21T11:22:23;12.80;1.00
7129;DHT22;3606;52.930;8.644;2023-02-21T11:27:26;12.60;1.00
7129;DHT22;3606;52.930;8.644;2023-02-21T11:29:54;12.60;1.00
7129;DHT22;3606;52.930;8.644;2023-02-21T11:32:29;12.60;1.00
7129;DHT22;3606;52.930;8.644;2023-02-21T11:38:06;12.60;1.00
7129;DHT22;3606;52.930;8.644;2023-02-21T11:40:44;12.50;1.00
7129;DHT22;3606;52.930;8.644;2023-02-21T11:43:29;12.50;1.00
7129;DHT22;3606;52.930;8.644;2023-02-21T11:48:38;12.50;26.00
7129;DHT22;3606;52.930;8.644;2023-02-21T11:51:17;12.50;1.00
7129;DHT22;3606;52.930;8.644;2023-02-21T11:53:44;12.40;1.00
7129;DHT22;3606;52.930;8.644;2023-02-21T11:56:33;12.60;1.00
7129;DHT22;3606;52.930;8.644;2023-02-21T12:18:45;12.90;1.00
7129;DHT22;3606;52.930;8.644;2023-02-21T12:24:01;13.40;1.00
7129;DHT22;3606;52.930;8.644;2023-02-21T12:42:39;13.10;1.00
7129;DHT22;3606;52.930;8.644;2023-02-21T12:45:52;13.10;1.00
7129;DHT22;3606;52.930;8.644;2023-02-21T12:48:28;13.10;1.00
7129;DHT22;3606;52.930;8.644;2023-02-21T12:51:01;13.10;1.00
7129;DHT22;3606;52.930;8.644;2023-02-21T12:56:15;13.00;1.00
7129;DHT22;3606;52.930;8.644;2023-02-21T13:01:29;13.00;1.00
7129;DHT22;3606;52.930;8.644;2023-02-21T13:06:58;13.10;1.00
7129;DHT22;3606;52.930;8.644;2023-02-21T13:12:22;13.00;1.00
7129;DHT22;3606;52.930;8.644;2023-02-21T13:14:59;12.80;1.00
7129;DHT22;3606;52.930;8.644;2023-02-21T13:17:27;12.80;1.00
7129;DHT22;3606;52.930;8.644;2023-02-21T13:20:08;12.80;1.00
7129;DHT22;3606;52.930;8.644;2023-02-21T13:28:54;12.80;1.00
7129;DHT22;3606;52.930;8.644;2023-02-21T13:31:26;12.80;1.00
7129;DHT22;3606;52.930;8.644;2023-02-21T13:33:56;12.80;1.00
7129;DHT22;3606;52.930;8.644;2023-02-21T13:36:30;12.70;1.00
7129;DHT22;3606;52.930;8.644;2023-02-21T13:41:55;12.70;1.00
7129;DHT22;3606;52.930;8.644;2023-02-21T13:44:47;12.80;1.00
7129;DHT22;3606;52.930;8.644;2023-02-21T13:47:17;12.70;1.00
7129;DHT22;3606;52.930;8.644;2023-02-21T13:49:47;12.70;1.00
7129;DHT22;3606;52.930;8.644;2023-02-21T13:57:39;12.50;1.00
7129;DHT22;3606;52.930;8.644;2023-02-21T14:08:48;12.30;1.00
7129;DHT22;3606;52.930;8.644;2023-02-21T14:11:24;12.30;1.00
7129;DHT22;3606;52.930;8.644;2023-02-21T14:14:02;12.40;1.00
7129;DHT22;3606;52.930;8.644;2023-02-21T14:16:49;12.40;1.00
7129;DHT22;3606;52.930;8.644;2023-02-21T14:19:24;12.30;1.00
7129;DHT22;3606;52.930;8.644;2023-02-21T14:21:59;12.20;1.00
7129;DHT22;3606;52.930;8.644;2023-02-21T14:24:31;12.30;1.00
7129;DHT22;3606;52.930;8.644;2023-02-21T14:32:31;12.20;1.00
7129;DHT22;3606;52.930;8.644;2023-02-21T14:34:59;12.20;1.00
7129;DHT22;3606;52.930;8.644;2023-02-21T14:43:37;12.20;1.00
7129;DHT22;3606;52.930;8.644;2023-02-21T14:46:35;12.20;1.00
7129;DHT22;3606;52.930;8.644;2023-02-21T14:49:45;12.30;1.00
7129;DHT22;3606;52.930;8.644;2023-02-21T14:53:01;12.20;1.00
7129;DHT22;3606;52.930;8.644;2023-02-21T15:01:20;12.10;31.40
7129;DHT22;3606;52.930;8.644;2023-02-21T15:04:14;12.00;83.80
7129;DHT22;3606;52.930;8.644;2023-02-21T15:06:45;12.00;99.90
7129;DHT22;3606;52.930;8.644;2023-02-21T15:09:19;12.00;99.90
7129;DHT22;3606;52.930;8.644;2023-02-21T15:11:46;11.90;99.90
7129;DHT22;3606;52.930;8.644;2023-02-21T15:14:21;11.90;99.90
7129;DHT22;3606;52.930;8.644;2023-02-21T15:16:55;11.90;99.90
7129;DHT22;3606;52.930;8.644;2023-02-21T15:19:31;11.90;99.90
7129;DHT22;3606;52.930;8.644;2023-02-21T15:22:20;11.80;99.90
7129;DHT22;3606;52.930;8.644;2023-02-21T15:27:31;11.60;99.90
7129;DHT22;3606;52.930;8.644;2023-02-21T15:32:34;11.40;99.90
7129;DHT22;3606;52.930;8.644;2023-02-21T15:35:03;11.30;99.90
7129;DHT22;3606;52.930;8.644;2023-02-21T15:37:33;11.30;99.90
7129;DHT22;3606;52.930;8.644;2023-02-21T15:40:12;11.20;99.90
7129;DHT22;3606;52.930;8.644;2023-02-21T15:42:40;11.20;99.90
7129;DHT22;3606;52.930;8.644;2023-02-21T15:45:11;11.10;99.90
7129;DHT22;3606;52.930;8.644;2023-02-21T15:47:41;11.20;99.90
7129;DHT22;3606;52.930;8.644;2023-02-21T15:50:17;11.20;99.90
7129;DHT22;3606;52.930;8.644;2023-02-21T15:52:46;11.20;99.90
7129;DHT22;3606;52.930;8.644;2023-02-21T15:58:11;11.10;99.90
7129;DHT22;3606;52.930;8.644;2023-02-21T16:00:48;11.10;99.90
7129;DHT22;3606;52.930;8.644;2023-02-21T16:06:26;11.00;99.90
7129;DHT22;3606;52.930;8.644;2023-02-21T16:08:53;11.00;99.90
7129;DHT22;3606;52.930;8.644;2023-02-21T16:14:38;10.80;99.90
7129;DHT22;3606;52.930;8.644;2023-02-21T16:19:40;10.70;99.90
7129;DHT22;3606;52.930;8.644;2023-02-21T16:22:35;10.70;99.90
7129;DHT22;3606;52.930;8.644;2023-02-21T16:25:22;10.70;99.90
7129;DHT22;3606;52.930;8.644;2023-02-21T16:27:49;10.60;99.90
7129;DHT22;3606;52.930;8.644;2023-02-21T16:30:20;10.60;99.90
7129;DHT22;3606;52.930;8.644;2023-02-21T16:32:47;10.60;99.90
7129;DHT22;3606;52.930;8.644;2023-02-21T16:35:16;10.60;99.90
7129;DHT22;3606;52.930;8.644;2023-02-21T16:37:45;10.60;99.90
7129;DHT22;3606;52.930;8.644;2023-02-21T16:40:13;10.60;99.90
7129;DHT22;3606;52.930;8.644;2023-02-21T16:42:39;10.50;99.90
7129;DHT22;3606;52.930;8.644;2023-02-21T16:45:05;10.50;99.90
7129;DHT22;3606;52.930;8.644;2023-02-21T16:47:31;10.50;99.90
7129;DHT22;3606;52.930;8.644;2023-02-21T16:49:56;10.40;99.90
7129;DHT22;3606;52.930;8.644;2023-02-21T16:52:22;10.50;99.90
7129;DHT22;3606;52.930;8.644;2023-02-21T16:54:47;10.50;99.90
7129;DHT22;3606;52.930;8.644;2023-02-21T16:57:13;10.40;99.90
7129;DHT22;3606;52.930;8.644;2023-02-21T16:59:38;10.30;99.90
7129;DHT22;3606;52.930;8.644;2023-02-21T17:02:04;10.30;99.90
7129;DHT22;3606;52.930;8.644;2023-02-21T17:04:30;10.30;99.90
7129;DHT22;3606;52.930;8.644;2023-02-21T17:07:03;10.30;99.90
7129;DHT22;3606;52.930;8.644;2023-02-21T17:09:30;10.30;99.90
7129;DHT22;3606;52.930;8.644;2023-02-21T17:11:58;10.30;99.90
7129;DHT22;3606;52.930;8.644;2023-02-21T17:14:25;10.30;99.90
7129;DHT22;3606;52.930;8.644;2023-02-21T17:16:50;10.30;99.90
7129;DHT22;3606;52.930;8.644;2023-02-21T17:19:18;10.30;99.90
7129;DHT22;3606;52.930;8.644;2023-02-21T17:21:46;10.30;99.90
7129;DHT22;3606;52.930;8.644;2023-02-21T17:24:12;10.30;99.90
7129;DHT22;3606;52.930;8.644;2023-02-21T17:26:39;10.30;99.90
7129;DHT22;3606;52.930;8.644;2023-02-21T17:29:05;10.30;99.90
7129;DHT22;3606;52.930;8.644;2023-02-21T17:31:31;10.30;99.90
7129;DHT22;3606;52.930;8.644;2023-02-21T17:33:56;10.40;99.90
7129;DHT22;3606;52.930;8.644;2023-02-21T17:36:25;10.30;99.90
7129;DHT22;3606;52.930;8.644;2023-02-21T17:38:50;10.30;99.90
7129;DHT22;3606;52.930;8.644;2023-02-21T17:41:16;10.30;99.90
7129;DHT22;3606;52.930;8.644;2023-02-21T17:43:44;10.30;99.90
7129;DHT22;3606;52.930;8.644;2023-02-21T17:46:14;10.30;99.90
7129;DHT22;3606;52.930;8.644;2023-02-21T17:48:41;10.20;99.90
7129;DHT22;3606;52.930;8.644;2023-02-21T17:51:08;10.30;99.90
7129;DHT22;3606;52.930;8.644;2023-02-21T17:53:34;10.20;99.90
7129;DHT22;3606;52.930;8.644;2023-02-21T17:56:00;10.20;99.90
7129;DHT22;3606;52.930;8.644;2023-02-21T17:58:26;10.20;99.90
7129;DHT22;3606;52.930;8.644;2023-02-21T18:00:52;10.20;99.90
7129;DHT22;3606;52.930;8.644;2023-02-21T18:03:21;10.20;99.90
7129;DHT22;3606;52.930;8.644;2023-02-21T18:05:47;10.20;99.90
7129;DHT22;3606;52.930;8.644;2023-02-21T18:08:13;10.20;99.90
7129;DHT22;3606;52.930;8.644;2023-02-21T18:10:38;10.20;99.90
7129;DHT22;3606;52.930;8.644;2023-02-21T18:13:09;10.10;99.90
7129;DHT22;3606;52.930;8.644;2023-02-21T18:15:34;10.10;99.90
7129;DHT22;3606;52.930;8.644;2023-02-21T18:18:00;10.10;99.90
7129;DHT22;3606;52.930;8.644;2023-02-21T18:20:29;10.10;99.90
7129;DHT22;3606;52.930;8.644;2023-02-21T18:22:56;10.10;99.90
7129;DHT22;3606;52.930;8.644;2023-02-21T18:25:22;10.10;99.90
7129;DHT22;3606;52.930;8.644;2023-02-21T18:27:49;10.10;99.90
7129;DHT22;3606;52.930;8.644;2023-02-21T18:30:15;10.10;99.90
7129;DHT22;3606;52.930;8.644;2023-02-21T18:32:41;10.10;99.90
7129;DHT22;3606;52.930;8.644;2023-02-21T18:35:07;10.10;99.90
7129;DHT22;3606;52.930;8.644;2023-02-21T18:37:33;10.10;99.90
7129;DHT22;3606;52.930;8.644;2023-02-21T18:39:59;10.10;99.90
7129;DHT22;3606;52.930;8.644;2023-02-21T18:42:25;10.20;99.90
7129;DHT22;3606;52.930;8.644;2023-02-21T18:44:51;10.10;99.90
7129;DHT22;3606;52.930;8.644;2023-02-21T18:47:16;10.10;99.90
7129;DHT22;3606;52.930;8.644;2023-02-21T18:49:44;10.10;99.90
7129;DHT22;3606;52.930;8.644;2023-02-21T18:52:11;10.10;99.90
7129;DHT22;3606;52.930;8.644;2023-02-21T18:54:47;10.10;99.90
7129;DHT22;3606;52.930;8.644;2023-02-21T18:57:15;10.00;99.90
7129;DHT22;3606;52.930;8.644;2023-02-21T18:59:41;10.10;99.90
7129;DHT22;3606;52.930;8.644;2023-02-21T19:02:11;10.10;99.90
7129;DHT22;3606;52.930;8.644;2023-02-21T19:04:37;10.00;99.90
7129;DHT22;3606;52.930;8.644;2023-02-21T19:07:06;10.00;99.90
7129;DHT22;3606;52.930;8.644;2023-02-21T19:09:32;10.10;99.90
7129;DHT22;3606;52.930;8.644;2023-02-21T19:12:00;10.10;99.90
7129;DHT22;3606;52.930;8.644;2023-02-21T19:14:26;10.10;99.90
7129;DHT22;3606;52.930;8.644;2023-02-21T19:16:52;10.10;99.90
7129;DHT22;3606;52.930;8.644;2023-02-21T19:19:17;10.10;99.90
7129;DHT22;3606;52.930;8.644;2023-02-21T19:21:44;10.10;99.90
7129;DHT22;3606;52.930;8.644;2023-02-21T19:24:09;10.10;99.90
7129;DHT22;3606;52.930;8.644;2023-02-21T19:26:35;10.00;99.90
7129;DHT22;3606;52.930;8.644;2023-02-21T19:29:00;10.00;99.90
7129;DHT22;3606;52.930;8.644;2023-02-21T19:31:26;10.00;99.90
7129;DHT22;3606;52.930;8.644;2023-02-21T19:33:52;10.00;99.90
7129;DHT22;3606;52.930;8.644;2023-02-21T19:36:19;10.00;99.90
7129;DHT22;3606;52.930;8.644;2023-02-21T19:38:45;10.00;99.90
7129;DHT22;3606;52.930;8.644;2023-02-21T19:41:11;10.00;99.90